FDX690 MMUN-MMTJ
Flight info
| Callsign | FDX690 |
|---|---|
| Flight time | 4h 25m |
| Altitude | 40000 |
| Route | UDGUV2A UDGUV UT78 DURPI DCT NOTEN UT37 ULUMA DCT MTY DCT TASTO DCT ILAMA UT41 NADIS DCT AVRIL UJ3 TANRI TANRI1B |
| Aircraft | B772/H-SDE2E3FGHIJ5LORVWXY/LB1D1 |
Departure
| Time | 2026-04-21 10:47 |
|---|---|
| Airport | Cancún International Airport (MMUN) |
Arrival
| Time | 2026-04-21 15:12 |
|---|---|
| Airport | General Abelardo L. Rodriguez International Airport (MMTJ) |
| Time | Latitude | Longitude | Altitude | Speed | Heading |
|---|---|---|---|---|---|
| 2026-04-21 10:16 | 21.03892 | -86.87500 | 32 ft | 0 kts | 27° |
| 2026-04-21 10:34 | 21.03888 | -86.87502 | 32 ft | 2 kts | 27° |
| 2026-04-21 10:34 | 21.03864 | -86.87512 | 31 ft | 4 kts | 0° |
| 2026-04-21 10:34 | 21.03844 | -86.87502 | 31 ft | 1 kts | 268° |
| 2026-04-21 10:34 | 21.03844 | -86.87498 | 31 ft | 0 kts | 239° |
| 2026-04-21 10:35 | 21.03846 | -86.87495 | 31 ft | 0 kts | 236° |
| 2026-04-21 10:40 | 21.03845 | -86.87496 | 31 ft | 0 kts | 237° |
| 2026-04-21 10:40 | 21.03840 | -86.87507 | 31 ft | 3 kts | 248° |
| 2026-04-21 10:40 | 21.03834 | -86.87533 | 31 ft | 4 kts | 258° |
| 2026-04-21 10:40 | 21.03827 | -86.87569 | 31 ft | 5 kts | 259° |
| 2026-04-21 10:41 | 21.03825 | -86.87608 | 31 ft | 4 kts | 270° |
| 2026-04-21 10:41 | 21.03829 | -86.87633 | 31 ft | 1 kts | 286° |
| 2026-04-21 10:41 | 21.03842 | -86.87669 | 31 ft | 8 kts | 295° |
| 2026-04-21 10:41 | 21.03881 | -86.87739 | 31 ft | 13 kts | 302° |
| 2026-04-21 10:42 | 21.03940 | -86.87841 | 31 ft | 18 kts | 301° |
| 2026-04-21 10:42 | 21.04020 | -86.87965 | 31 ft | 21 kts | 303° |
| 2026-04-21 10:42 | 21.04104 | -86.88107 | 33 ft | 23 kts | 303° |
| 2026-04-21 10:42 | 21.04201 | -86.88260 | 36 ft | 25 kts | 304° |
| 2026-04-21 10:43 | 21.04294 | -86.88421 | 39 ft | 25 kts | 302° |
| 2026-04-21 10:43 | 21.04404 | -86.88583 | 42 ft | 27 kts | 304° |
| 2026-04-21 10:43 | 21.04501 | -86.88738 | 42 ft | 22 kts | 300° |
| 2026-04-21 10:43 | 21.04572 | -86.88860 | 42 ft | 16 kts | 302° |
| 2026-04-21 10:44 | 21.04620 | -86.88947 | 43 ft | 10 kts | 291° |
| 2026-04-21 10:44 | 21.04617 | -86.89002 | 43 ft | 5 kts | 240° |
| 2026-04-21 10:44 | 21.04599 | -86.89020 | 42 ft | 2 kts | 210° |
| 2026-04-21 10:44 | 21.04582 | -86.89030 | 42 ft | 3 kts | 210° |
| 2026-04-21 10:45 | 21.04564 | -86.89038 | 42 ft | 2 kts | 190° |
| 2026-04-21 10:45 | 21.04555 | -86.89040 | 41 ft | 0 kts | 189° |
| 2026-04-21 10:45 | 21.04531 | -86.89045 | 41 ft | 5 kts | 193° |
| 2026-04-21 10:45 | 21.04504 | -86.89047 | 40 ft | 1 kts | 148° |
| 2026-04-21 10:46 | 21.04501 | -86.89043 | 40 ft | 0 kts | 137° |
| 2026-04-21 10:46 | 21.04436 | -86.88944 | 40 ft | 43 kts | 119° |
| 2026-04-21 10:46 | 21.04128 | -86.88423 | 37 ft | 120 kts | 123° |
| 2026-04-21 10:46 | 21.03529 | -86.87490 | 82 ft | 177 kts | 124° |
| 2026-04-21 10:47 | 21.02830 | -86.86380 | 739 ft | 187 kts | 121° |
| 2026-04-21 10:47 | 21.01959 | -86.85316 | 1606 ft | 201 kts | 140° |
| 2026-04-21 10:47 | 21.00640 | -86.84732 | 2483 ft | 217 kts | 167° |
| 2026-04-21 10:47 | 20.99128 | -86.84914 | 3375 ft | 230 kts | 200° |
| 2026-04-21 10:48 | 20.97743 | -86.85791 | 4394 ft | 238 kts | 213° |
| 2026-04-21 10:48 | 20.96360 | -86.86803 | 5351 ft | 249 kts | 213° |
| 2026-04-21 10:48 | 20.94909 | -86.87870 | 6293 ft | 261 kts | 221° |
| 2026-04-21 10:48 | 20.93791 | -86.89430 | 7109 ft | 275 kts | 248° |
| 2026-04-21 10:49 | 20.93291 | -86.91433 | 7961 ft | 289 kts | 261° |
| 2026-04-21 10:49 | 20.92992 | -86.93548 | 9043 ft | 294 kts | 263° |
| 2026-04-21 10:49 | 20.92701 | -86.95685 | 10177 ft | 296 kts | 263° |
| 2026-04-21 10:49 | 20.92395 | -86.97868 | 11213 ft | 300 kts | 262° |
| 2026-04-21 10:50 | 20.92079 | -87.00069 | 12244 ft | 304 kts | 263° |
| 2026-04-21 10:50 | 20.91759 | -87.02286 | 13290 ft | 307 kts | 262° |
| 2026-04-21 10:50 | 20.91437 | -87.04512 | 14305 ft | 309 kts | 263° |
| 2026-04-21 10:50 | 20.91108 | -87.06791 | 15309 ft | 312 kts | 263° |
| 2026-04-21 10:51 | 20.90779 | -87.09062 | 16267 ft | 315 kts | 263° |
| 2026-04-21 10:51 | 20.90444 | -87.11371 | 17204 ft | 317 kts | 263° |
| 2026-04-21 10:51 | 20.90107 | -87.13696 | 18140 ft | 320 kts | 263° |
| 2026-04-21 10:51 | 20.89771 | -87.16009 | 19042 ft | 322 kts | 263° |
| 2026-04-21 10:52 | 20.89425 | -87.18391 | 19937 ft | 325 kts | 264° |
| 2026-04-21 10:52 | 20.89080 | -87.20757 | 20761 ft | 328 kts | 263° |
| 2026-04-21 10:52 | 20.88727 | -87.23184 | 21434 ft | 337 kts | 264° |
| 2026-04-21 10:52 | 20.88364 | -87.25682 | 22029 ft | 348 kts | 263° |
| 2026-04-21 10:53 | 20.87987 | -87.28265 | 22607 ft | 358 kts | 263° |
| 2026-04-21 10:53 | 20.87597 | -87.30935 | 23184 ft | 369 kts | 263° |
| 2026-04-21 10:53 | 20.87195 | -87.33684 | 23757 ft | 380 kts | 263° |
| 2026-04-21 10:53 | 20.86781 | -87.36506 | 24340 ft | 390 kts | 263° |
| 2026-04-21 10:54 | 20.86357 | -87.39394 | 24886 ft | 400 kts | 263° |
| 2026-04-21 10:54 | 20.85926 | -87.42328 | 25384 ft | 409 kts | 263° |
| 2026-04-21 10:54 | 20.85478 | -87.45364 | 25827 ft | 419 kts | 263° |
| 2026-04-21 10:54 | 20.85019 | -87.48475 | 26242 ft | 429 kts | 262° |
| 2026-04-21 10:55 | 20.84543 | -87.51697 | 26598 ft | 440 kts | 262° |
| 2026-04-21 10:55 | 20.84064 | -87.54940 | 26946 ft | 450 kts | 262° |
| 2026-04-21 10:55 | 20.83573 | -87.58252 | 27421 ft | 455 kts | 262° |
| 2026-04-21 10:55 | 20.83081 | -87.61567 | 28094 ft | 456 kts | 262° |
| 2026-04-21 10:56 | 20.82587 | -87.64889 | 28950 ft | 451 kts | 262° |
| 2026-04-21 10:56 | 20.82102 | -87.68148 | 29944 ft | 443 kts | 262° |
| 2026-04-21 10:56 | 20.81628 | -87.71334 | 30906 ft | 434 kts | 262° |
| 2026-04-21 10:56 | 20.81155 | -87.74504 | 31759 ft | 428 kts | 262° |
| 2026-04-21 10:57 | 20.80783 | -87.77603 | 32436 ft | 424 kts | 267° |
| 2026-04-21 10:57 | 20.80774 | -87.80737 | 32981 ft | 423 kts | 271° |
| 2026-04-21 10:57 | 20.80844 | -87.83878 | 33534 ft | 424 kts | 271° |
| 2026-04-21 10:57 | 20.80917 | -87.87020 | 34054 ft | 424 kts | 271° |
| 2026-04-21 10:58 | 20.80989 | -87.90153 | 34610 ft | 423 kts | 271° |
| 2026-04-21 10:58 | 20.81058 | -87.93278 | 35204 ft | 420 kts | 271° |
| 2026-04-21 10:58 | 20.81126 | -87.96393 | 35803 ft | 416 kts | 271° |
| 2026-04-21 10:58 | 20.81193 | -87.99504 | 36360 ft | 413 kts | 271° |
| 2026-04-21 10:59 | 20.81259 | -88.02547 | 36817 ft | 411 kts | 271° |
| 2026-04-21 10:59 | 20.81324 | -88.05638 | 37178 ft | 410 kts | 271° |
| 2026-04-21 10:59 | 20.81389 | -88.08759 | 37440 ft | 411 kts | 271° |
| 2026-04-21 10:59 | 20.81452 | -88.11835 | 37656 ft | 412 kts | 271° |
| 2026-04-21 11:00 | 20.81516 | -88.14939 | 37867 ft | 414 kts | 271° |
| 2026-04-21 11:00 | 20.81578 | -88.18022 | 38118 ft | 414 kts | 271° |
| 2026-04-21 11:00 | 20.81640 | -88.21111 | 38418 ft | 412 kts | 271° |
| 2026-04-21 11:00 | 20.81701 | -88.24162 | 38726 ft | 411 kts | 271° |
| 2026-04-21 11:01 | 20.81762 | -88.27227 | 39003 ft | 409 kts | 271° |
| 2026-04-21 11:01 | 20.81821 | -88.30262 | 39207 ft | 409 kts | 271° |
| 2026-04-21 11:01 | 20.81879 | -88.33264 | 39344 ft | 410 kts | 271° |
| 2026-04-21 11:02 | 20.81995 | -88.39387 | 39539 ft | 412 kts | 271° |
| 2026-04-21 11:02 | 20.82053 | -88.42484 | 39662 ft | 413 kts | 271° |
| 2026-04-21 11:02 | 20.82110 | -88.45519 | 39823 ft | 413 kts | 271° |
| 2026-04-21 11:02 | 20.82166 | -88.48571 | 39984 ft | 412 kts | 271° |
| 2026-04-21 11:03 | 20.82222 | -88.51639 | 40094 ft | 413 kts | 271° |
| 2026-04-21 11:03 | 20.82277 | -88.54715 | 40090 ft | 415 kts | 271° |
| 2026-04-21 11:03 | 20.82387 | -88.60880 | 40084 ft | 420 kts | 271° |
| 2026-04-21 11:04 | 20.82496 | -88.67145 | 40099 ft | 424 kts | 271° |
| 2026-04-21 11:04 | 20.82604 | -88.73476 | 40097 ft | 430 kts | 271° |
| 2026-04-21 11:05 | 20.82712 | -88.79911 | 40094 ft | 436 kts | 271° |
| 2026-04-21 11:05 | 20.82819 | -88.86472 | 40094 ft | 442 kts | 271° |
| 2026-04-21 11:06 | 20.82924 | -88.93079 | 40093 ft | 446 kts | 271° |
| 2026-04-21 11:06 | 20.83027 | -88.99712 | 40092 ft | 450 kts | 271° |
| 2026-04-21 11:07 | 20.83128 | -89.06371 | 40090 ft | 452 kts | 271° |
| 2026-04-21 11:07 | 20.83227 | -89.13090 | 40088 ft | 453 kts | 271° |
| 2026-04-21 11:08 | 20.83475 | -89.19797 | 40088 ft | 453 kts | 277° |
| 2026-04-21 11:08 | 20.85207 | -89.26277 | 40086 ft | 456 kts | 292° |
| 2026-04-21 11:09 | 20.88048 | -89.32312 | 40089 ft | 458 kts | 295° |
| 2026-04-21 11:09 | 20.90955 | -89.38380 | 40090 ft | 459 kts | 295° |
| 2026-04-21 11:10 | 20.93854 | -89.44453 | 40090 ft | 459 kts | 294° |
| 2026-04-21 11:10 | 20.96752 | -89.50536 | 40089 ft | 459 kts | 294° |
| 2026-04-21 11:11 | 20.99639 | -89.56606 | 40090 ft | 459 kts | 294° |
| 2026-04-21 11:11 | 21.02527 | -89.62688 | 40088 ft | 459 kts | 294° |
| 2026-04-21 11:12 | 21.05408 | -89.68762 | 40100 ft | 458 kts | 294° |
| 2026-04-21 11:12 | 21.08292 | -89.74850 | 40099 ft | 459 kts | 294° |
| 2026-04-21 11:13 | 21.11157 | -89.80905 | 40095 ft | 458 kts | 294° |
| 2026-04-21 11:13 | 21.14043 | -89.87011 | 40094 ft | 458 kts | 294° |
| 2026-04-21 11:14 | 21.16898 | -89.93058 | 40091 ft | 458 kts | 294° |
| 2026-04-21 11:14 | 21.19790 | -89.99193 | 40091 ft | 459 kts | 294° |
| 2026-04-21 11:15 | 21.22655 | -90.05273 | 40091 ft | 458 kts | 294° |
| 2026-04-21 11:15 | 21.25513 | -90.11351 | 40089 ft | 458 kts | 294° |
| 2026-04-21 11:16 | 21.28359 | -90.17404 | 40084 ft | 447 kts | 294° |
| 2026-04-21 11:16 | 21.29729 | -90.20317 | 40081 ft | 429 kts | 294° |
| 2026-04-21 11:16 | 21.31040 | -90.23106 | 40081 ft | 413 kts | 294° |
| 2026-04-21 11:17 | 21.33571 | -90.28507 | 40084 ft | 405 kts | 293° |
| 2026-04-21 11:17 | 21.36098 | -90.33907 | 40086 ft | 405 kts | 293° |
| 2026-04-21 11:18 | 21.38624 | -90.39307 | 40085 ft | 406 kts | 293° |
| 2026-04-21 11:18 | 21.41144 | -90.44699 | 40085 ft | 406 kts | 293° |
| 2026-04-21 11:19 | 21.43679 | -90.50127 | 40083 ft | 406 kts | 294° |
| 2026-04-21 11:19 | 21.46202 | -90.55537 | 40082 ft | 407 kts | 294° |
| 2026-04-21 11:20 | 21.48726 | -90.60954 | 40079 ft | 407 kts | 294° |
| 2026-04-21 11:20 | 21.51255 | -90.66387 | 40095 ft | 407 kts | 293° |
| 2026-04-21 11:21 | 21.53779 | -90.71815 | 40094 ft | 408 kts | 293° |
| 2026-04-21 11:21 | 21.56333 | -90.77312 | 40094 ft | 410 kts | 293° |
| 2026-04-21 11:22 | 21.58860 | -90.82758 | 40096 ft | 411 kts | 293° |
| 2026-04-21 11:22 | 21.61413 | -90.88267 | 40091 ft | 412 kts | 293° |
| 2026-04-21 11:23 | 21.63961 | -90.93769 | 40094 ft | 412 kts | 293° |
| 2026-04-21 11:23 | 21.66502 | -90.99262 | 40089 ft | 412 kts | 293° |
| 2026-04-21 11:24 | 21.69046 | -91.04766 | 40089 ft | 411 kts | 293° |
| 2026-04-21 11:24 | 21.71573 | -91.10240 | 40091 ft | 412 kts | 293° |
| 2026-04-21 11:25 | 21.74111 | -91.15745 | 40089 ft | 412 kts | 293° |
| 2026-04-21 11:25 | 21.76663 | -91.21286 | 40087 ft | 412 kts | 293° |
| 2026-04-21 11:26 | 21.79191 | -91.26780 | 40086 ft | 412 kts | 293° |
| 2026-04-21 11:26 | 21.81723 | -91.32288 | 40085 ft | 412 kts | 293° |
| 2026-04-21 11:27 | 21.84254 | -91.37801 | 40086 ft | 412 kts | 293° |
| 2026-04-21 11:27 | 21.86790 | -91.43331 | 40086 ft | 411 kts | 293° |
| 2026-04-21 11:28 | 21.89321 | -91.48854 | 40083 ft | 410 kts | 293° |
| 2026-04-21 11:28 | 21.91831 | -91.54340 | 40083 ft | 411 kts | 293° |
| 2026-04-21 11:29 | 21.94351 | -91.59853 | 40081 ft | 411 kts | 293° |
| 2026-04-21 11:29 | 21.96879 | -91.65390 | 40082 ft | 410 kts | 292° |
| 2026-04-21 11:30 | 21.99387 | -91.70887 | 40097 ft | 411 kts | 292° |
| 2026-04-21 11:30 | 22.01898 | -91.76398 | 40096 ft | 412 kts | 292° |
| 2026-04-21 11:31 | 22.04424 | -91.81947 | 40096 ft | 412 kts | 292° |
| 2026-04-21 11:31 | 22.06934 | -91.87469 | 40095 ft | 412 kts | 292° |
| 2026-04-21 11:32 | 22.09456 | -91.93021 | 40096 ft | 412 kts | 292° |
| 2026-04-21 11:32 | 22.11953 | -91.98525 | 40095 ft | 412 kts | 292° |
| 2026-04-21 11:33 | 22.14476 | -92.04093 | 40095 ft | 412 kts | 292° |
| 2026-04-21 11:33 | 22.16968 | -92.09598 | 40095 ft | 412 kts | 292° |
| 2026-04-21 11:34 | 22.19481 | -92.15156 | 40099 ft | 411 kts | 292° |
| 2026-04-21 11:34 | 22.21967 | -92.20659 | 40099 ft | 409 kts | 292° |
| 2026-04-21 11:35 | 22.24452 | -92.26167 | 40097 ft | 409 kts | 292° |
| 2026-04-21 11:35 | 22.26950 | -92.31710 | 40095 ft | 409 kts | 292° |
| 2026-04-21 11:36 | 22.29428 | -92.37216 | 40096 ft | 409 kts | 292° |
| 2026-04-21 11:36 | 22.31909 | -92.42732 | 40093 ft | 410 kts | 292° |
| 2026-04-21 11:37 | 22.34395 | -92.48267 | 40096 ft | 411 kts | 292° |
| 2026-04-21 11:37 | 22.36883 | -92.53812 | 40094 ft | 411 kts | 292° |
| 2026-04-21 11:38 | 22.39370 | -92.59361 | 40092 ft | 411 kts | 292° |
| 2026-04-21 11:38 | 22.41851 | -92.64904 | 40095 ft | 410 kts | 292° |
| 2026-04-21 11:39 | 22.44335 | -92.70459 | 40115 ft | 411 kts | 291° |
| 2026-04-21 11:39 | 22.46816 | -92.76012 | 40113 ft | 410 kts | 291° |
| 2026-04-21 11:40 | 22.49300 | -92.81580 | 40112 ft | 412 kts | 291° |
| 2026-04-21 11:40 | 22.51768 | -92.87118 | 40111 ft | 411 kts | 291° |
| 2026-04-21 11:41 | 22.54248 | -92.92690 | 40117 ft | 410 kts | 291° |
| 2026-04-21 11:41 | 22.56708 | -92.98222 | 40115 ft | 410 kts | 291° |
| 2026-04-21 11:42 | 22.59188 | -93.03803 | 40118 ft | 410 kts | 291° |
| 2026-04-21 11:42 | 22.61640 | -93.09332 | 40112 ft | 410 kts | 291° |
| 2026-04-21 11:43 | 22.64116 | -93.14919 | 40114 ft | 411 kts | 291° |
| 2026-04-21 11:43 | 22.66580 | -93.20484 | 40116 ft | 410 kts | 291° |
| 2026-04-21 11:44 | 22.69033 | -93.26033 | 40115 ft | 411 kts | 292° |
| 2026-04-21 11:44 | 22.71494 | -93.31605 | 40114 ft | 412 kts | 292° |
| 2026-04-21 11:45 | 22.73948 | -93.37167 | 40111 ft | 411 kts | 291° |
| 2026-04-21 11:45 | 22.76405 | -93.42744 | 40109 ft | 411 kts | 291° |
| 2026-04-21 11:46 | 22.78870 | -93.48345 | 40105 ft | 411 kts | 291° |
| 2026-04-21 11:46 | 22.81311 | -93.53897 | 40102 ft | 411 kts | 291° |
| 2026-04-21 11:47 | 22.83767 | -93.59489 | 40099 ft | 410 kts | 291° |
| 2026-04-21 11:47 | 22.86206 | -93.65051 | 40107 ft | 411 kts | 291° |
| 2026-04-21 11:48 | 22.88649 | -93.70626 | 40118 ft | 410 kts | 291° |
| 2026-04-21 11:48 | 22.91097 | -93.76222 | 40118 ft | 412 kts | 291° |
| 2026-04-21 11:49 | 22.93545 | -93.81821 | 40112 ft | 410 kts | 291° |
| 2026-04-21 11:49 | 22.95988 | -93.87419 | 40131 ft | 412 kts | 291° |
| 2026-04-21 11:50 | 22.98422 | -93.93001 | 40130 ft | 412 kts | 291° |
| 2026-04-21 11:50 | 23.00872 | -93.98625 | 40136 ft | 412 kts | 291° |
| 2026-04-21 11:51 | 23.03308 | -94.04223 | 40132 ft | 412 kts | 291° |
| 2026-04-21 11:51 | 23.05760 | -94.09866 | 40128 ft | 412 kts | 291° |
| 2026-04-21 11:52 | 23.08193 | -94.15471 | 40123 ft | 410 kts | 291° |
| 2026-04-21 11:52 | 23.10617 | -94.21062 | 40130 ft | 411 kts | 291° |
| 2026-04-21 11:53 | 23.13055 | -94.26695 | 40120 ft | 411 kts | 291° |
| 2026-04-21 11:53 | 23.15470 | -94.32278 | 40112 ft | 410 kts | 291° |
| 2026-04-21 11:54 | 23.17886 | -94.37871 | 40109 ft | 410 kts | 291° |
| 2026-04-21 11:54 | 23.20315 | -94.43499 | 40110 ft | 410 kts | 291° |
| 2026-04-21 11:55 | 23.22722 | -94.49084 | 40111 ft | 408 kts | 291° |
| 2026-04-21 11:55 | 23.25118 | -94.54651 | 40103 ft | 409 kts | 291° |
| 2026-04-21 11:56 | 23.27520 | -94.60237 | 40096 ft | 409 kts | 291° |
| 2026-04-21 11:56 | 23.29854 | -94.65886 | 40099 ft | 408 kts | 288° |
| 2026-04-21 11:57 | 23.32037 | -94.71571 | 40113 ft | 408 kts | 289° |
| 2026-04-21 11:57 | 23.34226 | -94.77254 | 40125 ft | 407 kts | 289° |
| 2026-04-21 11:58 | 23.36405 | -94.82901 | 40122 ft | 406 kts | 289° |
| 2026-04-21 11:58 | 23.38596 | -94.88581 | 40126 ft | 407 kts | 289° |
| 2026-04-21 11:59 | 23.40773 | -94.94228 | 40118 ft | 408 kts | 289° |
| 2026-04-21 11:59 | 23.42963 | -94.99913 | 40117 ft | 408 kts | 289° |
| 2026-04-21 12:00 | 23.45154 | -95.05608 | 40114 ft | 408 kts | 289° |
| 2026-04-21 12:00 | 23.47347 | -95.11314 | 40120 ft | 408 kts | 289° |
| 2026-04-21 12:01 | 23.49526 | -95.16989 | 40116 ft | 407 kts | 289° |
| 2026-04-21 12:01 | 23.51702 | -95.22665 | 40114 ft | 406 kts | 289° |
| 2026-04-21 12:02 | 23.54944 | -95.31136 | 40116 ft | 406 kts | 289° |
| 2026-04-21 12:03 | 23.57115 | -95.36817 | 40111 ft | 405 kts | 288° |
| 2026-04-21 12:03 | 23.59278 | -95.42485 | 40113 ft | 405 kts | 289° |
| 2026-04-21 12:04 | 23.61428 | -95.48125 | 40112 ft | 404 kts | 288° |
| 2026-04-21 12:04 | 23.63579 | -95.53776 | 40116 ft | 405 kts | 289° |
| 2026-04-21 12:05 | 23.65728 | -95.59428 | 40110 ft | 405 kts | 289° |
| 2026-04-21 12:05 | 23.68171 | -95.65010 | 40112 ft | 408 kts | 294° |
| 2026-04-21 12:06 | 23.70840 | -95.70418 | 40125 ft | 407 kts | 294° |
| 2026-04-21 12:06 | 23.73527 | -95.75877 | 40130 ft | 407 kts | 294° |
| 2026-04-21 12:07 | 23.76179 | -95.81276 | 40130 ft | 407 kts | 293° |
| 2026-04-21 12:07 | 23.78862 | -95.86748 | 40122 ft | 407 kts | 294° |
| 2026-04-21 12:08 | 23.81522 | -95.92178 | 40123 ft | 406 kts | 294° |
| 2026-04-21 12:08 | 23.84168 | -95.97588 | 40130 ft | 407 kts | 294° |
| 2026-04-21 12:09 | 23.86835 | -96.03047 | 40131 ft | 407 kts | 294° |
| 2026-04-21 12:09 | 23.89504 | -96.08517 | 40129 ft | 406 kts | 294° |
| 2026-04-21 12:10 | 23.92145 | -96.13936 | 40127 ft | 407 kts | 294° |
| 2026-04-21 12:10 | 23.94806 | -96.19400 | 40126 ft | 407 kts | 294° |
| 2026-04-21 12:11 | 23.97467 | -96.24872 | 40129 ft | 406 kts | 294° |
| 2026-04-21 12:11 | 24.00107 | -96.30306 | 40130 ft | 406 kts | 294° |
| 2026-04-21 12:12 | 24.02752 | -96.35757 | 40128 ft | 408 kts | 294° |
| 2026-04-21 12:12 | 24.05409 | -96.41241 | 40126 ft | 408 kts | 294° |
| 2026-04-21 12:13 | 24.08053 | -96.46701 | 40125 ft | 408 kts | 294° |
| 2026-04-21 12:13 | 24.10694 | -96.52164 | 40124 ft | 407 kts | 294° |
| 2026-04-21 12:14 | 24.13338 | -96.57636 | 40123 ft | 407 kts | 294° |
| 2026-04-21 12:14 | 24.15969 | -96.63091 | 40121 ft | 405 kts | 294° |
| 2026-04-21 12:15 | 24.18596 | -96.68542 | 40137 ft | 406 kts | 293° |
| 2026-04-21 12:15 | 24.21231 | -96.74017 | 40138 ft | 407 kts | 294° |
| 2026-04-21 12:16 | 24.23861 | -96.79487 | 40131 ft | 406 kts | 294° |
| 2026-04-21 12:16 | 24.26490 | -96.84961 | 40132 ft | 406 kts | 294° |
| 2026-04-21 12:17 | 24.29119 | -96.90443 | 40132 ft | 407 kts | 294° |
| 2026-04-21 12:17 | 24.31747 | -96.95929 | 40135 ft | 408 kts | 294° |
| 2026-04-21 12:18 | 24.34366 | -97.01401 | 40137 ft | 407 kts | 294° |
| 2026-04-21 12:18 | 24.36990 | -97.06892 | 40128 ft | 407 kts | 294° |
| 2026-04-21 12:19 | 24.39608 | -97.12373 | 40123 ft | 407 kts | 294° |
| 2026-04-21 12:19 | 24.42231 | -97.17873 | 40118 ft | 408 kts | 293° |
| 2026-04-21 12:20 | 24.44848 | -97.23368 | 40121 ft | 405 kts | 294° |
| 2026-04-21 12:20 | 24.47447 | -97.28830 | 40120 ft | 406 kts | 294° |
| 2026-04-21 12:21 | 24.50053 | -97.34315 | 40119 ft | 407 kts | 294° |
| 2026-04-21 12:21 | 24.52673 | -97.39835 | 40122 ft | 406 kts | 294° |
| 2026-04-21 12:22 | 24.55279 | -97.45332 | 40119 ft | 406 kts | 294° |
| 2026-04-21 12:22 | 24.57868 | -97.50800 | 40112 ft | 406 kts | 294° |
| 2026-04-21 12:23 | 24.60471 | -97.56303 | 40111 ft | 405 kts | 294° |
| 2026-04-21 12:23 | 24.63081 | -97.61828 | 40116 ft | 406 kts | 294° |
| 2026-04-21 12:24 | 24.65665 | -97.67304 | 40130 ft | 406 kts | 294° |
| 2026-04-21 12:24 | 24.68284 | -97.72863 | 40130 ft | 407 kts | 294° |
| 2026-04-21 12:25 | 24.70870 | -97.78355 | 40134 ft | 406 kts | 294° |
| 2026-04-21 12:25 | 24.73451 | -97.83845 | 40128 ft | 406 kts | 294° |
| 2026-04-21 12:26 | 24.76060 | -97.89401 | 40120 ft | 407 kts | 294° |
| 2026-04-21 12:26 | 24.78652 | -97.94926 | 40116 ft | 406 kts | 294° |
| 2026-04-21 12:27 | 24.81258 | -98.00490 | 40111 ft | 407 kts | 294° |
| 2026-04-21 12:27 | 24.83848 | -98.06025 | 40112 ft | 408 kts | 294° |
| 2026-04-21 12:28 | 24.86448 | -98.11590 | 40114 ft | 408 kts | 294° |
| 2026-04-21 12:28 | 24.89040 | -98.17141 | 40112 ft | 407 kts | 294° |
| 2026-04-21 12:29 | 24.91634 | -98.22707 | 40114 ft | 408 kts | 294° |
| 2026-04-21 12:29 | 24.94223 | -98.28265 | 40114 ft | 407 kts | 294° |
| 2026-04-21 12:30 | 24.96816 | -98.33841 | 40108 ft | 407 kts | 294° |
| 2026-04-21 12:30 | 24.99385 | -98.39371 | 40109 ft | 406 kts | 294° |
| 2026-04-21 12:31 | 25.01953 | -98.44907 | 40111 ft | 407 kts | 294° |
| 2026-04-21 12:31 | 25.04509 | -98.50423 | 40107 ft | 406 kts | 294° |
| 2026-04-21 12:32 | 25.07085 | -98.55988 | 40109 ft | 406 kts | 294° |
| 2026-04-21 12:32 | 25.09630 | -98.61494 | 40109 ft | 405 kts | 294° |
| 2026-04-21 12:33 | 25.12182 | -98.67023 | 40127 ft | 404 kts | 294° |
| 2026-04-21 12:33 | 25.14724 | -98.72535 | 40122 ft | 404 kts | 294° |
| 2026-04-21 12:34 | 25.17259 | -98.78038 | 40121 ft | 404 kts | 294° |
| 2026-04-21 12:34 | 25.19819 | -98.83604 | 40119 ft | 404 kts | 294° |
| 2026-04-21 12:35 | 25.22368 | -98.89153 | 40119 ft | 404 kts | 294° |
| 2026-04-21 12:35 | 25.24903 | -98.94676 | 40118 ft | 402 kts | 294° |
| 2026-04-21 12:36 | 25.27429 | -99.00189 | 40118 ft | 404 kts | 294° |
| 2026-04-21 12:36 | 25.29959 | -99.05714 | 40122 ft | 403 kts | 294° |
| 2026-04-21 12:37 | 25.32482 | -99.11234 | 40120 ft | 402 kts | 294° |
| 2026-04-21 12:37 | 25.34993 | -99.16734 | 40125 ft | 403 kts | 294° |
| 2026-04-21 12:38 | 25.37511 | -99.22253 | 40126 ft | 401 kts | 294° |
| 2026-04-21 12:38 | 25.40013 | -99.27747 | 40124 ft | 402 kts | 294° |
| 2026-04-21 12:39 | 25.42517 | -99.33251 | 40124 ft | 403 kts | 294° |
| 2026-04-21 12:39 | 25.45030 | -99.38782 | 40126 ft | 403 kts | 294° |
| 2026-04-21 12:40 | 25.47551 | -99.44337 | 40127 ft | 403 kts | 294° |
| 2026-04-21 12:40 | 25.50042 | -99.49834 | 40131 ft | 401 kts | 294° |
| 2026-04-21 12:41 | 25.52550 | -99.55373 | 40129 ft | 401 kts | 294° |
| 2026-04-21 12:41 | 25.55041 | -99.60883 | 40124 ft | 401 kts | 294° |
| 2026-04-21 12:42 | 25.57540 | -99.66417 | 40142 ft | 402 kts | 294° |
| 2026-04-21 12:42 | 25.60034 | -99.71946 | 40147 ft | 400 kts | 293° |
| 2026-04-21 12:43 | 25.62503 | -99.77430 | 40154 ft | 400 kts | 294° |
| 2026-04-21 12:43 | 25.64984 | -99.82943 | 40148 ft | 400 kts | 293° |
| 2026-04-21 12:44 | 25.67462 | -99.88460 | 40150 ft | 400 kts | 293° |
| 2026-04-21 12:44 | 25.69935 | -99.93971 | 40142 ft | 400 kts | 293° |
| 2026-04-21 12:45 | 25.72413 | -99.99498 | 40142 ft | 400 kts | 293° |
| 2026-04-21 12:45 | 25.74870 | -100.04987 | 40138 ft | 400 kts | 294° |
| 2026-04-21 12:46 | 25.77347 | -100.10529 | 40140 ft | 400 kts | 293° |
| 2026-04-21 12:46 | 25.80114 | -100.15900 | 40139 ft | 402 kts | 297° |
| 2026-04-21 12:47 | 25.82953 | -100.21217 | 40140 ft | 401 kts | 297° |
| 2026-04-21 12:47 | 25.85766 | -100.26532 | 40137 ft | 401 kts | 297° |
| 2026-04-21 12:48 | 25.88584 | -100.31879 | 40138 ft | 400 kts | 297° |
| 2026-04-21 12:48 | 25.91381 | -100.37203 | 40136 ft | 401 kts | 297° |
| 2026-04-21 12:49 | 25.94184 | -100.42548 | 40135 ft | 401 kts | 296° |
| 2026-04-21 12:49 | 25.96986 | -100.47901 | 40148 ft | 400 kts | 296° |
| 2026-04-21 12:50 | 25.99783 | -100.53250 | 40148 ft | 400 kts | 297° |
| 2026-04-21 12:50 | 26.02586 | -100.58619 | 40146 ft | 400 kts | 297° |
| 2026-04-21 12:51 | 26.05368 | -100.63953 | 40147 ft | 400 kts | 296° |
| 2026-04-21 12:51 | 26.08140 | -100.69273 | 40167 ft | 400 kts | 296° |
| 2026-04-21 12:52 | 26.10912 | -100.74601 | 40171 ft | 399 kts | 296° |
| 2026-04-21 12:52 | 26.13684 | -100.79936 | 40167 ft | 398 kts | 296° |
| 2026-04-21 12:53 | 26.16466 | -100.85296 | 40166 ft | 399 kts | 296° |
| 2026-04-21 12:53 | 26.19220 | -100.90607 | 40168 ft | 398 kts | 296° |
| 2026-04-21 12:54 | 26.21998 | -100.95971 | 40171 ft | 399 kts | 296° |
| 2026-04-21 12:54 | 26.24764 | -101.01320 | 40164 ft | 399 kts | 296° |
| 2026-04-21 12:55 | 26.27516 | -101.06647 | 40169 ft | 400 kts | 296° |
| 2026-04-21 12:55 | 26.30283 | -101.12009 | 40164 ft | 400 kts | 296° |
| 2026-04-21 12:56 | 26.33059 | -101.17394 | 40168 ft | 400 kts | 296° |
| 2026-04-21 12:56 | 26.35814 | -101.22746 | 40173 ft | 400 kts | 296° |
| 2026-04-21 12:57 | 26.38570 | -101.28107 | 40176 ft | 399 kts | 296° |
| 2026-04-21 12:57 | 26.41324 | -101.33471 | 40191 ft | 399 kts | 296° |
| 2026-04-21 12:58 | 26.44074 | -101.38831 | 40218 ft | 400 kts | 295° |
| 2026-04-21 12:58 | 26.46837 | -101.44224 | 40249 ft | 398 kts | 296° |
| 2026-04-21 12:59 | 26.49573 | -101.49572 | 40302 ft | 398 kts | 296° |
| 2026-04-21 12:59 | 26.52324 | -101.54957 | 40304 ft | 400 kts | 296° |
| 2026-04-21 13:00 | 26.55064 | -101.60324 | 40276 ft | 400 kts | 296° |
| 2026-04-21 13:00 | 26.57826 | -101.65742 | 40259 ft | 399 kts | 295° |
| 2026-04-21 13:01 | 26.60557 | -101.71104 | 40260 ft | 399 kts | 295° |
| 2026-04-21 13:01 | 26.63290 | -101.76479 | 40242 ft | 400 kts | 295° |
| 2026-04-21 13:02 | 26.66031 | -101.81875 | 40225 ft | 399 kts | 295° |
| 2026-04-21 13:02 | 26.70128 | -101.89954 | 40192 ft | 399 kts | 295° |
| 2026-04-21 13:03 | 26.72865 | -101.95358 | 40178 ft | 400 kts | 295° |
| 2026-04-21 13:03 | 26.75623 | -102.00809 | 40184 ft | 400 kts | 295° |
| 2026-04-21 13:04 | 26.78348 | -102.06205 | 40181 ft | 400 kts | 295° |
| 2026-04-21 13:04 | 26.81079 | -102.11618 | 40199 ft | 400 kts | 295° |
| 2026-04-21 13:05 | 26.83798 | -102.17013 | 40226 ft | 399 kts | 295° |
| 2026-04-21 13:05 | 26.86524 | -102.22430 | 40268 ft | 399 kts | 295° |
| 2026-04-21 13:06 | 26.89234 | -102.27821 | 40312 ft | 400 kts | 295° |
| 2026-04-21 13:06 | 26.91960 | -102.33252 | 40315 ft | 400 kts | 295° |
| 2026-04-21 13:07 | 26.94668 | -102.38651 | 40290 ft | 399 kts | 295° |
| 2026-04-21 13:07 | 26.97384 | -102.44075 | 40276 ft | 400 kts | 295° |
| 2026-04-21 13:08 | 27.00097 | -102.49500 | 40257 ft | 399 kts | 295° |
| 2026-04-21 13:08 | 27.02799 | -102.54908 | 40238 ft | 398 kts | 295° |
| 2026-04-21 13:09 | 27.05492 | -102.60305 | 40230 ft | 399 kts | 295° |
| 2026-04-21 13:09 | 27.08202 | -102.65745 | 40221 ft | 399 kts | 294° |
| 2026-04-21 13:10 | 27.10893 | -102.71152 | 40225 ft | 400 kts | 294° |
| 2026-04-21 13:10 | 27.13597 | -102.76592 | 40214 ft | 398 kts | 294° |
| 2026-04-21 13:11 | 27.16286 | -102.82009 | 40206 ft | 398 kts | 294° |
| 2026-04-21 13:11 | 27.18973 | -102.87427 | 40212 ft | 399 kts | 294° |
| 2026-04-21 13:12 | 27.21670 | -102.92876 | 40204 ft | 399 kts | 294° |
| 2026-04-21 13:12 | 27.24359 | -102.98312 | 40202 ft | 398 kts | 294° |
| 2026-04-21 13:13 | 27.27060 | -103.03779 | 40195 ft | 398 kts | 294° |
| 2026-04-21 13:13 | 27.29737 | -103.09208 | 40193 ft | 399 kts | 294° |
| 2026-04-21 13:14 | 27.32411 | -103.14634 | 40193 ft | 397 kts | 294° |
| 2026-04-21 13:14 | 27.35072 | -103.20043 | 40198 ft | 399 kts | 294° |
| 2026-04-21 13:15 | 27.37758 | -103.25507 | 40194 ft | 397 kts | 294° |
| 2026-04-21 13:15 | 27.40422 | -103.30934 | 40200 ft | 397 kts | 294° |
| 2026-04-21 13:16 | 27.43090 | -103.36379 | 40207 ft | 399 kts | 294° |
| 2026-04-21 13:16 | 27.45766 | -103.41846 | 40210 ft | 398 kts | 294° |
| 2026-04-21 13:17 | 27.48425 | -103.47283 | 40212 ft | 398 kts | 294° |
| 2026-04-21 13:17 | 27.51087 | -103.52734 | 40217 ft | 398 kts | 294° |
| 2026-04-21 13:18 | 27.53743 | -103.58180 | 40210 ft | 398 kts | 294° |
| 2026-04-21 13:18 | 27.56418 | -103.63673 | 40211 ft | 398 kts | 294° |
| 2026-04-21 13:19 | 27.59098 | -103.69182 | 40224 ft | 399 kts | 293° |
| 2026-04-21 13:19 | 27.61745 | -103.74631 | 40236 ft | 398 kts | 294° |
| 2026-04-21 13:20 | 27.64399 | -103.80100 | 40240 ft | 397 kts | 293° |
| 2026-04-21 13:20 | 27.67040 | -103.85552 | 40246 ft | 398 kts | 294° |
| 2026-04-21 13:21 | 27.69688 | -103.91024 | 40252 ft | 397 kts | 293° |
| 2026-04-21 13:21 | 27.72345 | -103.96522 | 40257 ft | 400 kts | 293° |
| 2026-04-21 13:22 | 27.75012 | -104.02048 | 40266 ft | 401 kts | 293° |
| 2026-04-21 13:22 | 27.77670 | -104.07563 | 40270 ft | 401 kts | 294° |
| 2026-04-21 13:23 | 27.80342 | -104.13113 | 40264 ft | 402 kts | 293° |
| 2026-04-21 13:23 | 27.82986 | -104.18612 | 40263 ft | 401 kts | 293° |
| 2026-04-21 13:24 | 27.85651 | -104.24162 | 40260 ft | 401 kts | 293° |
| 2026-04-21 13:24 | 27.88306 | -104.29700 | 40260 ft | 401 kts | 293° |
| 2026-04-21 13:25 | 27.90958 | -104.35239 | 40254 ft | 403 kts | 293° |
| 2026-04-21 13:25 | 27.93616 | -104.40797 | 40248 ft | 402 kts | 293° |
| 2026-04-21 13:26 | 27.96273 | -104.46359 | 40243 ft | 403 kts | 293° |
| 2026-04-21 13:26 | 27.98917 | -104.51903 | 40234 ft | 401 kts | 293° |
| 2026-04-21 13:27 | 28.01555 | -104.57443 | 40242 ft | 403 kts | 293° |
| 2026-04-21 13:27 | 28.04222 | -104.63049 | 40248 ft | 403 kts | 293° |
| 2026-04-21 13:28 | 28.06889 | -104.68663 | 40271 ft | 402 kts | 292° |
| 2026-04-21 13:28 | 28.09525 | -104.74220 | 40278 ft | 403 kts | 292° |
| 2026-04-21 13:29 | 28.12167 | -104.79797 | 40268 ft | 404 kts | 292° |
| 2026-04-21 13:29 | 28.14806 | -104.85375 | 40256 ft | 403 kts | 292° |
| 2026-04-21 13:30 | 28.17471 | -104.91015 | 40240 ft | 404 kts | 292° |
| 2026-04-21 13:30 | 28.20106 | -104.96602 | 40228 ft | 405 kts | 292° |
| 2026-04-21 13:31 | 28.22760 | -105.02233 | 40215 ft | 405 kts | 292° |
| 2026-04-21 13:31 | 28.25403 | -105.07850 | 40223 ft | 405 kts | 292° |
| 2026-04-21 13:32 | 28.28057 | -105.13498 | 40231 ft | 405 kts | 292° |
| 2026-04-21 13:32 | 28.30702 | -105.19133 | 40234 ft | 405 kts | 292° |
| 2026-04-21 13:33 | 28.33346 | -105.24777 | 40231 ft | 406 kts | 292° |
| 2026-04-21 13:33 | 28.35998 | -105.30444 | 40226 ft | 407 kts | 292° |
| 2026-04-21 13:34 | 28.38646 | -105.36111 | 40219 ft | 407 kts | 292° |
| 2026-04-21 13:34 | 28.41295 | -105.41785 | 40212 ft | 406 kts | 292° |
| 2026-04-21 13:35 | 28.43920 | -105.47419 | 40202 ft | 407 kts | 292° |
| 2026-04-21 13:35 | 28.46567 | -105.53106 | 40198 ft | 407 kts | 292° |
| 2026-04-21 13:36 | 28.49205 | -105.58770 | 40197 ft | 407 kts | 293° |
| 2026-04-21 13:36 | 28.51891 | -105.64490 | 40208 ft | 407 kts | 293° |
| 2026-04-21 13:37 | 28.54541 | -105.70142 | 40228 ft | 408 kts | 292° |
| 2026-04-21 13:37 | 28.57214 | -105.75854 | 40244 ft | 410 kts | 292° |
| 2026-04-21 13:38 | 28.59875 | -105.81546 | 40240 ft | 409 kts | 292° |
| 2026-04-21 13:38 | 28.62543 | -105.87263 | 40237 ft | 409 kts | 292° |
| 2026-04-21 13:39 | 28.65205 | -105.92976 | 40217 ft | 409 kts | 292° |
| 2026-04-21 13:39 | 28.67865 | -105.98692 | 40174 ft | 409 kts | 292° |
| 2026-04-21 13:40 | 28.70529 | -106.04424 | 40212 ft | 408 kts | 292° |
| 2026-04-21 13:40 | 28.73179 | -106.10138 | 40253 ft | 409 kts | 292° |
| 2026-04-21 13:41 | 28.75832 | -106.15862 | 40284 ft | 410 kts | 292° |
| 2026-04-21 13:41 | 28.78501 | -106.21630 | 40298 ft | 409 kts | 292° |
| 2026-04-21 13:42 | 28.81152 | -106.27368 | 40315 ft | 409 kts | 293° |
| 2026-04-21 13:42 | 28.83802 | -106.33112 | 40314 ft | 410 kts | 292° |
| 2026-04-21 13:43 | 28.86447 | -106.38854 | 40317 ft | 409 kts | 292° |
| 2026-04-21 13:43 | 28.89093 | -106.44605 | 40333 ft | 411 kts | 293° |
| 2026-04-21 13:44 | 28.91743 | -106.50372 | 40347 ft | 409 kts | 293° |
| 2026-04-21 13:44 | 28.94382 | -106.56125 | 40357 ft | 411 kts | 293° |
| 2026-04-21 13:45 | 28.97028 | -106.61901 | 40352 ft | 410 kts | 293° |
| 2026-04-21 13:45 | 28.99665 | -106.67666 | 40373 ft | 411 kts | 292° |
| 2026-04-21 13:46 | 29.02315 | -106.73468 | 40376 ft | 412 kts | 292° |
| 2026-04-21 13:46 | 29.04945 | -106.79235 | 40382 ft | 411 kts | 292° |
| 2026-04-21 13:47 | 29.07591 | -106.85044 | 40384 ft | 411 kts | 292° |
| 2026-04-21 13:47 | 29.10232 | -106.90853 | 40379 ft | 412 kts | 292° |
| 2026-04-21 13:48 | 29.12865 | -106.96652 | 40379 ft | 413 kts | 292° |
| 2026-04-21 13:48 | 29.15515 | -107.02496 | 40371 ft | 413 kts | 292° |
| 2026-04-21 13:49 | 29.18152 | -107.08321 | 40361 ft | 414 kts | 292° |
| 2026-04-21 13:49 | 29.20800 | -107.14175 | 40367 ft | 414 kts | 292° |
| 2026-04-21 13:50 | 29.23435 | -107.20011 | 40367 ft | 413 kts | 292° |
| 2026-04-21 13:50 | 29.26062 | -107.25840 | 40365 ft | 413 kts | 292° |
| 2026-04-21 13:51 | 29.28689 | -107.31677 | 40365 ft | 413 kts | 292° |
| 2026-04-21 13:51 | 29.31316 | -107.37521 | 40372 ft | 413 kts | 292° |
| 2026-04-21 13:52 | 29.33950 | -107.43393 | 40373 ft | 414 kts | 292° |
| 2026-04-21 13:52 | 29.36568 | -107.49234 | 40371 ft | 414 kts | 292° |
| 2026-04-21 13:53 | 29.39202 | -107.55120 | 40366 ft | 415 kts | 292° |
| 2026-04-21 13:53 | 29.41830 | -107.61002 | 40359 ft | 415 kts | 292° |
| 2026-04-21 13:54 | 29.44494 | -107.66973 | 40368 ft | 415 kts | 292° |
| 2026-04-21 13:54 | 29.47109 | -107.72845 | 40372 ft | 414 kts | 292° |
| 2026-04-21 13:55 | 29.49728 | -107.78733 | 40369 ft | 415 kts | 292° |
| 2026-04-21 13:55 | 29.52345 | -107.84627 | 40366 ft | 416 kts | 292° |
| 2026-04-21 13:56 | 29.54971 | -107.90551 | 40365 ft | 416 kts | 292° |
| 2026-04-21 13:56 | 29.57583 | -107.96451 | 40359 ft | 418 kts | 292° |
| 2026-04-21 13:57 | 29.60207 | -108.02383 | 40362 ft | 416 kts | 292° |
| 2026-04-21 13:57 | 29.62820 | -108.08305 | 40353 ft | 418 kts | 292° |
| 2026-04-21 13:58 | 29.65448 | -108.14268 | 40346 ft | 418 kts | 292° |
| 2026-04-21 13:58 | 29.68060 | -108.20203 | 40343 ft | 417 kts | 292° |
| 2026-04-21 13:59 | 29.70677 | -108.26160 | 40340 ft | 419 kts | 292° |
| 2026-04-21 13:59 | 29.73283 | -108.32101 | 40337 ft | 418 kts | 292° |
| 2026-04-21 14:00 | 29.75885 | -108.38042 | 40334 ft | 419 kts | 292° |
| 2026-04-21 14:00 | 29.78511 | -108.44045 | 40336 ft | 419 kts | 292° |
| 2026-04-21 14:01 | 29.81118 | -108.50017 | 40324 ft | 420 kts | 292° |
| 2026-04-21 14:01 | 29.83639 | -108.56033 | 40309 ft | 420 kts | 291° |
| 2026-04-21 14:02 | 29.86164 | -108.62128 | 40305 ft | 420 kts | 291° |
| 2026-04-21 14:03 | 29.89930 | -108.71220 | 40302 ft | 420 kts | 291° |
| 2026-04-21 14:03 | 29.92434 | -108.77272 | 40282 ft | 421 kts | 291° |
| 2026-04-21 14:04 | 29.94938 | -108.83331 | 40262 ft | 420 kts | 291° |
| 2026-04-21 14:04 | 29.97450 | -108.89420 | 40250 ft | 420 kts | 291° |
| 2026-04-21 14:05 | 29.99953 | -108.95496 | 40222 ft | 422 kts | 291° |
| 2026-04-21 14:05 | 30.02455 | -109.01580 | 40212 ft | 421 kts | 291° |
| 2026-04-21 14:06 | 30.04986 | -109.07743 | 40203 ft | 423 kts | 291° |
| 2026-04-21 14:06 | 30.07491 | -109.13853 | 40194 ft | 421 kts | 291° |
| 2026-04-21 14:07 | 30.09998 | -109.19978 | 40184 ft | 422 kts | 291° |
| 2026-04-21 14:07 | 30.12490 | -109.26077 | 40172 ft | 422 kts | 291° |
| 2026-04-21 14:08 | 30.15003 | -109.32238 | 40186 ft | 422 kts | 291° |
| 2026-04-21 14:08 | 30.17496 | -109.38357 | 40213 ft | 422 kts | 291° |
| 2026-04-21 14:09 | 30.19994 | -109.44502 | 40236 ft | 423 kts | 291° |
| 2026-04-21 14:09 | 30.22491 | -109.50652 | 40257 ft | 422 kts | 291° |
| 2026-04-21 14:10 | 30.24985 | -109.56807 | 40248 ft | 422 kts | 291° |
| 2026-04-21 14:10 | 30.27458 | -109.62920 | 40234 ft | 421 kts | 291° |
| 2026-04-21 14:11 | 30.29946 | -109.69078 | 40234 ft | 422 kts | 291° |
| 2026-04-21 14:11 | 30.32412 | -109.75195 | 40233 ft | 422 kts | 291° |
| 2026-04-21 14:12 | 30.34904 | -109.81385 | 40230 ft | 423 kts | 290° |
| 2026-04-21 14:12 | 30.37371 | -109.87522 | 40219 ft | 422 kts | 291° |
| 2026-04-21 14:13 | 30.39854 | -109.93711 | 40217 ft | 423 kts | 291° |
| 2026-04-21 14:13 | 30.42329 | -109.99891 | 40200 ft | 423 kts | 291° |
| 2026-04-21 14:14 | 30.44797 | -110.06062 | 40201 ft | 423 kts | 290° |
| 2026-04-21 14:14 | 30.47275 | -110.12270 | 40205 ft | 424 kts | 291° |
| 2026-04-21 14:15 | 30.49729 | -110.18426 | 40214 ft | 423 kts | 291° |
| 2026-04-21 14:15 | 30.52202 | -110.24644 | 40213 ft | 425 kts | 291° |
| 2026-04-21 14:16 | 30.54687 | -110.30899 | 40214 ft | 424 kts | 291° |
| 2026-04-21 14:16 | 30.57161 | -110.37139 | 40220 ft | 425 kts | 291° |
| 2026-04-21 14:17 | 30.59629 | -110.43372 | 40226 ft | 424 kts | 291° |
| 2026-04-21 14:17 | 30.62089 | -110.49596 | 40226 ft | 424 kts | 291° |
| 2026-04-21 14:18 | 30.64544 | -110.55822 | 40226 ft | 425 kts | 291° |
| 2026-04-21 14:18 | 30.66985 | -110.62020 | 40224 ft | 425 kts | 291° |
| 2026-04-21 14:19 | 30.69434 | -110.68250 | 40235 ft | 426 kts | 290° |
| 2026-04-21 14:19 | 30.71880 | -110.74483 | 40226 ft | 425 kts | 290° |
| 2026-04-21 14:20 | 30.74337 | -110.80754 | 40217 ft | 425 kts | 290° |
| 2026-04-21 14:20 | 30.76771 | -110.86979 | 40210 ft | 425 kts | 290° |
| 2026-04-21 14:21 | 30.79221 | -110.93254 | 40201 ft | 425 kts | 290° |
| 2026-04-21 14:21 | 30.81653 | -110.99495 | 40193 ft | 426 kts | 290° |
| 2026-04-21 14:22 | 30.84098 | -111.05788 | 40181 ft | 425 kts | 291° |
| 2026-04-21 14:22 | 30.86538 | -111.12080 | 40171 ft | 425 kts | 290° |
| 2026-04-21 14:23 | 30.88964 | -111.18348 | 40175 ft | 426 kts | 291° |
| 2026-04-21 14:23 | 30.91388 | -111.24621 | 40164 ft | 426 kts | 290° |
| 2026-04-21 14:24 | 30.93529 | -111.30986 | 40158 ft | 423 kts | 285° |
| 2026-04-21 14:24 | 30.95365 | -111.37506 | 40147 ft | 424 kts | 285° |
| 2026-04-21 14:25 | 30.97201 | -111.44042 | 40148 ft | 424 kts | 285° |
| 2026-04-21 14:25 | 30.99041 | -111.50600 | 40126 ft | 423 kts | 285° |
| 2026-04-21 14:26 | 31.00851 | -111.57063 | 40124 ft | 424 kts | 285° |
| 2026-04-21 14:26 | 31.02677 | -111.63594 | 40125 ft | 423 kts | 285° |
| 2026-04-21 14:27 | 31.04490 | -111.70096 | 40117 ft | 422 kts | 285° |
| 2026-04-21 14:27 | 31.06307 | -111.76624 | 40123 ft | 423 kts | 285° |
| 2026-04-21 14:28 | 31.08117 | -111.83144 | 40104 ft | 424 kts | 285° |
| 2026-04-21 14:28 | 31.09924 | -111.89665 | 40095 ft | 424 kts | 285° |
| 2026-04-21 14:29 | 31.11725 | -111.96178 | 40083 ft | 424 kts | 285° |
| 2026-04-21 14:29 | 31.13532 | -112.02730 | 40085 ft | 423 kts | 285° |
| 2026-04-21 14:30 | 31.15332 | -112.09267 | 40076 ft | 424 kts | 285° |
| 2026-04-21 14:30 | 31.17126 | -112.15800 | 40081 ft | 423 kts | 285° |
| 2026-04-21 14:31 | 31.18911 | -112.22311 | 40086 ft | 423 kts | 285° |
| 2026-04-21 14:31 | 31.20705 | -112.28874 | 40077 ft | 422 kts | 285° |
| 2026-04-21 14:32 | 31.22479 | -112.35376 | 40058 ft | 421 kts | 285° |
| 2026-04-21 14:32 | 31.24254 | -112.41898 | 40051 ft | 422 kts | 286° |
| 2026-04-21 14:33 | 31.26028 | -112.48425 | 40050 ft | 422 kts | 286° |
| 2026-04-21 14:33 | 31.27798 | -112.54958 | 40048 ft | 423 kts | 286° |
| 2026-04-21 14:34 | 31.29569 | -112.61506 | 40032 ft | 423 kts | 286° |
| 2026-04-21 14:34 | 31.31326 | -112.68019 | 40045 ft | 423 kts | 285° |
| 2026-04-21 14:35 | 31.33089 | -112.74571 | 40035 ft | 422 kts | 285° |
| 2026-04-21 14:35 | 31.34837 | -112.81075 | 40027 ft | 422 kts | 285° |
| 2026-04-21 14:36 | 31.36593 | -112.87631 | 40022 ft | 423 kts | 286° |
| 2026-04-21 14:36 | 31.38338 | -112.94155 | 40012 ft | 420 kts | 286° |
| 2026-04-21 14:37 | 31.40074 | -113.00663 | 40010 ft | 422 kts | 286° |
| 2026-04-21 14:37 | 31.41820 | -113.07222 | 40002 ft | 421 kts | 286° |
| 2026-04-21 14:38 | 31.43551 | -113.13743 | 39990 ft | 419 kts | 286° |
| 2026-04-21 14:38 | 31.45280 | -113.20266 | 39994 ft | 421 kts | 286° |
| 2026-04-21 14:39 | 31.47005 | -113.26794 | 39971 ft | 420 kts | 286° |
| 2026-04-21 14:39 | 31.48722 | -113.33302 | 39977 ft | 419 kts | 286° |
| 2026-04-21 14:40 | 31.50441 | -113.39837 | 39974 ft | 419 kts | 286° |
| 2026-04-21 14:40 | 31.52136 | -113.46291 | 39980 ft | 418 kts | 286° |
| 2026-04-21 14:41 | 31.53844 | -113.52814 | 39976 ft | 419 kts | 286° |
| 2026-04-21 14:41 | 31.55538 | -113.59294 | 39990 ft | 419 kts | 286° |
| 2026-04-21 14:42 | 31.57249 | -113.65857 | 39971 ft | 418 kts | 285° |
| 2026-04-21 14:42 | 31.58932 | -113.72325 | 39970 ft | 417 kts | 286° |
| 2026-04-21 14:43 | 31.60613 | -113.78804 | 39976 ft | 418 kts | 285° |
| 2026-04-21 14:43 | 31.62295 | -113.85300 | 39970 ft | 416 kts | 286° |
| 2026-04-21 14:44 | 31.63979 | -113.91816 | 39966 ft | 415 kts | 286° |
| 2026-04-21 14:44 | 31.65658 | -113.98332 | 39971 ft | 415 kts | 286° |
| 2026-04-21 14:45 | 31.67329 | -114.04829 | 39962 ft | 416 kts | 286° |
| 2026-04-21 14:45 | 31.69001 | -114.11346 | 39969 ft | 414 kts | 286° |
| 2026-04-21 14:46 | 31.70664 | -114.17846 | 39968 ft | 415 kts | 286° |
| 2026-04-21 14:46 | 31.72311 | -114.24297 | 39963 ft | 414 kts | 286° |
| 2026-04-21 14:47 | 31.73949 | -114.30727 | 39964 ft | 412 kts | 286° |
| 2026-04-21 14:47 | 31.75598 | -114.37214 | 39957 ft | 412 kts | 286° |
| 2026-04-21 14:48 | 31.77219 | -114.43609 | 39964 ft | 411 kts | 286° |
| 2026-04-21 14:48 | 31.78844 | -114.50030 | 39961 ft | 410 kts | 286° |
| 2026-04-21 14:49 | 31.80461 | -114.56438 | 39950 ft | 408 kts | 287° |
| 2026-04-21 14:49 | 31.82075 | -114.62849 | 39866 ft | 404 kts | 287° |
| 2026-04-21 14:49 | 31.82864 | -114.65987 | 39374 ft | 400 kts | 286° |
| 2026-04-21 14:50 | 31.83656 | -114.69144 | 38319 ft | 405 kts | 286° |
| 2026-04-21 14:50 | 31.84456 | -114.72334 | 37097 ft | 413 kts | 286° |
| 2026-04-21 14:50 | 31.85266 | -114.75568 | 35960 ft | 418 kts | 285° |
| 2026-04-21 14:50 | 31.86087 | -114.78848 | 35313 ft | 415 kts | 286° |
| 2026-04-21 14:51 | 31.87054 | -114.82037 | 34622 ft | 420 kts | 290° |
| 2026-04-21 14:51 | 31.88144 | -114.85311 | 33944 ft | 426 kts | 290° |
| 2026-04-21 14:51 | 31.89222 | -114.88560 | 33397 ft | 429 kts | 289° |
| 2026-04-21 14:51 | 31.90296 | -114.91827 | 32848 ft | 432 kts | 289° |
| 2026-04-21 14:52 | 31.91373 | -114.95117 | 32192 ft | 435 kts | 289° |
| 2026-04-21 14:52 | 31.92451 | -114.98428 | 31474 ft | 439 kts | 289° |
| 2026-04-21 14:52 | 31.93536 | -115.01773 | 30750 ft | 442 kts | 289° |
| 2026-04-21 14:52 | 31.94638 | -115.05178 | 30018 ft | 446 kts | 289° |
| 2026-04-21 14:53 | 31.95726 | -115.08547 | 29293 ft | 449 kts | 289° |
| 2026-04-21 14:53 | 31.96837 | -115.11991 | 28690 ft | 448 kts | 289° |
| 2026-04-21 14:53 | 31.97928 | -115.15379 | 28308 ft | 443 kts | 289° |
| 2026-04-21 14:53 | 31.99021 | -115.18781 | 27995 ft | 442 kts | 289° |
| 2026-04-21 14:54 | 32.00100 | -115.22144 | 27590 ft | 443 kts | 289° |
| 2026-04-21 14:54 | 32.01182 | -115.25517 | 27174 ft | 439 kts | 289° |
| 2026-04-21 14:54 | 32.02254 | -115.28864 | 26761 ft | 435 kts | 289° |
| 2026-04-21 14:54 | 32.03313 | -115.32179 | 26352 ft | 433 kts | 289° |
| 2026-04-21 14:55 | 32.04368 | -115.35478 | 25944 ft | 432 kts | 288° |
| 2026-04-21 14:55 | 32.05426 | -115.38794 | 25531 ft | 430 kts | 288° |
| 2026-04-21 14:55 | 32.06464 | -115.42051 | 25122 ft | 428 kts | 288° |
| 2026-04-21 14:55 | 32.07503 | -115.45316 | 24713 ft | 425 kts | 288° |
| 2026-04-21 14:56 | 32.08542 | -115.48581 | 24300 ft | 423 kts | 288° |
| 2026-04-21 14:56 | 32.09563 | -115.51794 | 23886 ft | 421 kts | 288° |
| 2026-04-21 14:56 | 32.10588 | -115.55022 | 23469 ft | 418 kts | 288° |
| 2026-04-21 14:56 | 32.11606 | -115.58235 | 23055 ft | 416 kts | 288° |
| 2026-04-21 14:57 | 32.12608 | -115.61400 | 22648 ft | 414 kts | 288° |
| 2026-04-21 14:57 | 32.13604 | -115.64545 | 22248 ft | 412 kts | 288° |
| 2026-04-21 14:57 | 32.14600 | -115.67698 | 21844 ft | 408 kts | 288° |
| 2026-04-21 14:57 | 32.15585 | -115.70823 | 21451 ft | 407 kts | 288° |
| 2026-04-21 14:58 | 32.16577 | -115.73975 | 21061 ft | 406 kts | 288° |
| 2026-04-21 14:58 | 32.17545 | -115.77051 | 20668 ft | 404 kts | 287° |
| 2026-04-21 14:58 | 32.18517 | -115.80147 | 20276 ft | 401 kts | 287° |
| 2026-04-21 14:58 | 32.19480 | -115.83212 | 19896 ft | 400 kts | 287° |
| 2026-04-21 14:59 | 32.20446 | -115.86295 | 19511 ft | 398 kts | 287° |
| 2026-04-21 14:59 | 32.21398 | -115.89333 | 19138 ft | 397 kts | 287° |
| 2026-04-21 14:59 | 32.22352 | -115.92380 | 18699 ft | 395 kts | 287° |
| 2026-04-21 14:59 | 32.23305 | -115.95429 | 17857 ft | 401 kts | 287° |
| 2026-04-21 15:00 | 32.24266 | -115.98507 | 16714 ft | 400 kts | 287° |
| 2026-04-21 15:00 | 32.25208 | -116.01521 | 15774 ft | 392 kts | 287° |
| 2026-04-21 15:00 | 32.26129 | -116.04469 | 15143 ft | 377 kts | 287° |
| 2026-04-21 15:00 | 32.27017 | -116.07316 | 14531 ft | 364 kts | 287° |
| 2026-04-21 15:01 | 32.27882 | -116.10094 | 13913 ft | 353 kts | 287° |
| 2026-04-21 15:01 | 32.28712 | -116.12761 | 13310 ft | 344 kts | 287° |
| 2026-04-21 15:01 | 32.29527 | -116.15388 | 12717 ft | 336 kts | 287° |
| 2026-04-21 15:01 | 32.30315 | -116.17928 | 12099 ft | 330 kts | 287° |
| 2026-04-21 15:02 | 32.31094 | -116.20441 | 11489 ft | 324 kts | 287° |
| 2026-04-21 15:02 | 32.31855 | -116.22899 | 10909 ft | 318 kts | 287° |
| 2026-04-21 15:02 | 32.32612 | -116.25339 | 10470 ft | 308 kts | 287° |
| 2026-04-21 15:02 | 32.33342 | -116.27703 | 10187 ft | 304 kts | 287° |
| 2026-04-21 15:03 | 32.34051 | -116.29993 | 10135 ft | 291 kts | 287° |
| 2026-04-21 15:03 | 32.34732 | -116.32194 | 10026 ft | 286 kts | 287° |
| 2026-04-21 15:03 | 32.35418 | -116.34426 | 9447 ft | 297 kts | 287° |
| 2026-04-21 15:03 | 32.36135 | -116.36757 | 8796 ft | 306 kts | 287° |
| 2026-04-21 15:04 | 32.36873 | -116.39150 | 8245 ft | 310 kts | 288° |
| 2026-04-21 15:04 | 32.37597 | -116.41492 | 8140 ft | 299 kts | 288° |
| 2026-04-21 15:04 | 32.38291 | -116.43737 | 7984 ft | 290 kts | 288° |
| 2026-04-21 15:04 | 32.38980 | -116.45974 | 7635 ft | 289 kts | 288° |
| 2026-04-21 15:05 | 32.39667 | -116.48206 | 7268 ft | 289 kts | 288° |
| 2026-04-21 15:05 | 32.41041 | -116.52674 | 6516 ft | 288 kts | 288° |
| 2026-04-21 15:05 | 32.41721 | -116.54889 | 6154 ft | 287 kts | 288° |
| 2026-04-21 15:06 | 32.42401 | -116.57102 | 5785 ft | 287 kts | 289° |
| 2026-04-21 15:06 | 32.43077 | -116.59306 | 5416 ft | 286 kts | 289° |
| 2026-04-21 15:06 | 32.43725 | -116.61540 | 5047 ft | 285 kts | 283° |
| 2026-04-21 15:06 | 32.44000 | -116.63817 | 4680 ft | 283 kts | 275° |
| 2026-04-21 15:07 | 32.44145 | -116.66138 | 4322 ft | 283 kts | 273° |
| 2026-04-21 15:07 | 32.44280 | -116.68479 | 4012 ft | 280 kts | 273° |
| 2026-04-21 15:07 | 32.44414 | -116.70733 | 3817 ft | 274 kts | 274° |
| 2026-04-21 15:07 | 32.44826 | -116.72875 | 3691 ft | 264 kts | 291° |
| 2026-04-21 15:08 | 32.45570 | -116.74832 | 3581 ft | 257 kts | 295° |
| 2026-04-21 15:08 | 32.46345 | -116.76695 | 3493 ft | 248 kts | 295° |
| 2026-04-21 15:08 | 32.47097 | -116.78497 | 3434 ft | 235 kts | 295° |
| 2026-04-21 15:08 | 32.47792 | -116.80170 | 3361 ft | 224 kts | 295° |
| 2026-04-21 15:09 | 32.48460 | -116.81780 | 3293 ft | 209 kts | 295° |
| 2026-04-21 15:09 | 32.49074 | -116.83262 | 3215 ft | 194 kts | 296° |
| 2026-04-21 15:09 | 32.49657 | -116.84669 | 3135 ft | 182 kts | 296° |
| 2026-04-21 15:09 | 32.50180 | -116.85931 | 2992 ft | 166 kts | 296° |
| 2026-04-21 15:10 | 32.50693 | -116.87167 | 2595 ft | 168 kts | 296° |
| 2026-04-21 15:10 | 32.51212 | -116.88420 | 2199 ft | 170 kts | 296° |
| 2026-04-21 15:10 | 32.51727 | -116.89623 | 2053 ft | 158 kts | 301° |
| 2026-04-21 15:10 | 32.52280 | -116.90696 | 1944 ft | 155 kts | 301° |
| 2026-04-21 15:11 | 32.52839 | -116.91788 | 1626 ft | 157 kts | 301° |
| 2026-04-21 15:11 | 32.53328 | -116.92944 | 1344 ft | 154 kts | 294° |
| 2026-04-21 15:11 | 32.53689 | -116.94148 | 886 ft | 157 kts | 283° |
| 2026-04-21 15:11 | 32.53891 | -116.95394 | 512 ft | 153 kts | 279° |
| 2026-04-21 15:12 | 32.54031 | -116.96423 | 483 ft | 80 kts | 278° |
| 2026-04-21 15:12 | 32.54067 | -116.96726 | 477 ft | 19 kts | 278° |
| 2026-04-21 15:12 | 32.54094 | -116.96917 | 473 ft | 27 kts | 278° |
| 2026-04-21 15:12 | 32.54150 | -116.97192 | 468 ft | 32 kts | 297° |
| 2026-04-21 15:13 | 32.54253 | -116.97369 | 470 ft | 18 kts | 322° |
| 2026-04-21 15:13 | 32.54345 | -116.97411 | 471 ft | 11 kts | 360° |
| 2026-04-21 15:13 | 32.54405 | -116.97417 | 473 ft | 6 kts | 348° |
| 2026-04-21 15:13 | 32.54414 | -116.97420 | 473 ft | 0 kts | 347° |
| 2026-04-21 15:14 | 32.54420 | -116.97422 | 473 ft | 0 kts | 345° |
| 2026-04-21 15:14 | 32.54424 | -116.97423 | 473 ft | 4 kts | 345° |
| 2026-04-21 15:14 | 32.54428 | -116.97424 | 473 ft | 0 kts | 346° |